| time (UTC) | temp F | wind direction | speed knots | gust knots | rain 1hr in | rain 24hr in | rain mn in | humidity % | barometer mb |
| 20260510030802 | 78 | 27 | 0.9 | 2.6 | 0.00 | 0.00 | 0.00 | 82 | 1015.0 |
| 20260510025803 | 78 | 27 | 1.7 | 2.6 | 0.00 | 0.00 | 0.00 | 81 | 1015.0 |
| 20260510024753 | 79 | 23 | 1.7 | 2.6 | 0.00 | 0.00 | 0.00 | 81 | 1014.9 |
| 20260510023752 | 79 | 23 | 0.9 | 2.6 | 0.00 | 0.00 | 0.00 | 80 | 1014.8 |
| 20260510022753 | 79 | 23 | 0.9 | 3.5 | 0.00 | 0.00 | 0.00 | 80 | 1014.7 |
| 20260510021754 | 80 | 23 | 2.6 | 5.2 | 0.00 | 0.00 | 0.00 | 79 | 1014.6 |
| 20260510020751 | 80 | 15 | 2.6 | 4.3 | 0.00 | 0.00 | 0.00 | 78 | 1014.6 |
| 20260510015751 | 80 | 10 | 3.5 | 7.0 | 0.00 | 0.00 | 0.00 | 77 | 1014.5 |
| 20260510015229 | 81 | 22 | 3.5 | 8.7 | 0.00 | 0.00 | 0.00 | 76 | 1014.4 |
| 20260510013749 | 81 | 15 | 5.2 | 10.4 | 0.00 | 0.00 | 0.00 | 76 | 1014.2 |
| 20260510012752 | 82 | 337 | 4.3 | 9.6 | 0.00 | 0.00 | 0.00 | 75 | 1014.1 |
| 20260510011734 | 83 | 23 | 4.3 | 8.7 | 0.00 | 0.00 | 0.00 | 74 | 1013.8 |
| 20260510011218 | 83 | 20 | 6.1 | 13.0 | 0.00 | 0.00 | 0.00 | 73 | 1013.6 |
| 20260510010214 | 83 | 23 | 6.1 | 10.4 | 0.00 | 0.00 | 0.00 | 72 | 1013.3 |
| 20260510004736 | 84 | 334 | 6.1 | 13.0 | 0.00 | 0.00 | 0.00 | 69 | 1013.1 |
| 20260510003730 | 85 | 37 | 4.3 | 12.2 | 0.00 | 0.00 | 0.00 | 65 | 1012.9 |
| 20260510003211 | 86 | 321 | 1.7 | 3.5 | 0.00 | 0.00 | 0.00 | 60 | 1012.7 |
| 20260510001729 | 86 | 305 | 0.9 | 3.5 | 0.00 | 0.00 | 0.00 | 60 | 1012.5 |
| 20260510000728 | 87 | 308 | 2.6 | 7.8 | 0.00 | 0.00 | 0.00 | 58 | 1012.2 |
| 20260509235729 | 87 | 309 | 3.5 | 8.7 | 0.00 | 0.00 | 0.00 | 57 | 1012.1 |
| 20260509234729 | 88 | 300 | 3.5 | 7.0 | 0.00 | 0.00 | 0.00 | 56 | 1011.9 |
| 20260509233729 | 89 | 309 | 4.3 | 9.6 | 0.00 | 0.00 | 0.00 | 55 | 1011.8 |
| 20260509232725 | 90 | 310 | 4.3 | 11.3 | 0.00 | 0.00 | 0.00 | 53 | 1011.6 |
| 20260509231725 | 91 | 274 | 4.3 | 10.4 | 0.00 | 0.00 | 0.00 | 52 | 1011.5 |
| 20260509230709 | 92 | 282 | 5.2 | 12.2 | 0.00 | 0.00 | 0.00 | 50 | 1011.4 |
| 20260509225710 | 92 | 275 | 4.3 | 9.6 | 0.00 | 0.00 | 0.00 | 51 | 1011.3 |
| 20260509224711 | 92 | 281 | 4.3 | 9.6 | 0.00 | 0.00 | 0.00 | 51 | 1011.1 |
| 20260509223710 | 93 | 235 | 4.3 | 9.6 | 0.00 | 0.00 | 0.00 | 51 | 1011.0 |
| 20260509222709 | 93 | 294 | 4.3 | 9.6 | 0.00 | 0.00 | 0.00 | 51 | 1011.0 |
| 20260509221713 | 93 | 273 | 3.5 | 7.8 | 0.00 | 0.00 | 0.00 | 52 | 1011.0 |
| 20260509220657 | 93 | 274 | 3.5 | 7.8 | 0.00 | 0.00 | 0.00 | 52 | 1011.1 |
| 20260509215657 | 92 | 276 | 3.5 | 7.0 | 0.00 | 0.00 | 0.00 | 54 | 1011.1 |
| 20260509215133 | 92 | 297 | 3.5 | 8.7 | 0.00 | 0.00 | 0.00 | 54 | 1010.9 |
| 20260509213658 | 90 | 322 | 3.5 | 7.8 | 0.00 | 0.00 | 0.00 | 62 | 1010.9 |
| 20260509212657 | 88 | 336 | 5.2 | 12.2 | 0.00 | 0.00 | 0.00 | 64 | 1010.8 |
| 20260509211650 | 87 | 287 | 6.1 | 16.5 | 0.00 | 0.00 | 0.00 | 63 | 1010.9 |
| 20260509210649 | 89 | 300 | 8.7 | 19.1 | 0.00 | 0.00 | 0.00 | 58 | 1010.9 |
| 20260509205647 | 93 | 241 | 6.1 | 11.3 | 0.00 | 0.00 | 0.00 | 50 | 1010.5 |
| 20260509204647 | 94 | 262 | 6.1 | 13.0 | 0.00 | 0.00 | 0.00 | 48 | 1010.4 |
| 20260509203647 | 96 | 223 | 4.3 | 11.3 | 0.00 | 0.00 | 0.00 | 47 | 1010.4 |
| 20260509203136 | 96 | 250 | 5.2 | 14.8 | 0.00 | 0.00 | 0.00 | 45 | 1010.6 |
| 20260509201647 | 96 | 229 | 5.2 | 13.9 | 0.00 | 0.00 | 0.00 | 47 | 1010.7 |
| 20260509200648 | 96 | 271 | 6.1 | 11.3 | 0.00 | 0.00 | 0.00 | 46 | 1010.7 |
| 20260509195649 | 95 | 194 | 4.3 | 13.0 | 0.00 | 0.00 | 0.00 | 48 | 1010.8 |
| 20260509194642 | 95 | 284 | 5.2 | 12.2 | 0.00 | 0.00 | 0.00 | 47 | 1010.9 |
| 20260509193641 | 96 | 240 | 6.1 | 10.4 | 0.00 | 0.00 | 0.00 | 45 | 1011.1 |
| 20260509192642 | 96 | 259 | 4.3 | 13.9 | 0.00 | 0.00 | 0.00 | 45 | 1011.3 |
| 20260509191642 | 96 | 276 | 5.2 | 10.4 | 0.00 | 0.00 | 0.00 | 47 | 1011.3 |
| 20260509190640 | 97 | 269 | 5.2 | 13.9 | 0.00 | 0.00 | 0.00 | 45 | 1011.5 |
| 20260509190115 | 95 | 274 | 4.3 | 10.4 | 0.00 | 0.00 | 0.00 | 48 | 1011.5 |
| 20260509184630 | 94 | 252 | 4.3 | 10.4 | 0.00 | 0.00 | 0.00 | 49 | 1011.7 |
| 20260509183631 | 95 | 208 | 4.3 | 10.4 | 0.00 | 0.00 | 0.00 | 47 | 1011.7 |
| 20260509182629 | 96 | 225 | 7.0 | 14.8 | 0.00 | 0.00 | 0.00 | 47 | 1011.9 |
| 20260509182117 | 95 | 214 | 4.3 | 9.6 | 0.00 | 0.00 | 0.00 | 45 | 1011.9 |
| 20260509180629 | 96 | 214 | 5.2 | 11.3 | 0.00 | 0.00 | 0.00 | 45 | 1012.0 |
| 20260509175628 | 97 | 250 | 5.2 | 13.0 | 0.00 | 0.00 | 0.00 | 44 | 1012.0 |
| 20260509174614 | 96 | 264 | 5.2 | 13.0 | 0.00 | 0.00 | 0.00 | 45 | 1012.1 |
| 20260509173615 | 96 | 152 | 5.2 | 15.6 | 0.00 | 0.00 | 0.00 | 47 | 1012.2 |
| 20260509172615 | 95 | 270 | 6.1 | 13.0 | 0.00 | 0.00 | 0.00 | 46 | 1012.3 |
| 20260509172058 | 96 | 225 | 7.0 | 13.9 | 0.00 | 0.00 | 0.00 | 45 | 1012.4 |
| 20260509170612 | 95 | 179 | 6.1 | 11.3 | 0.00 | 0.00 | 0.00 | 46 | 1012.4 |
| 20260509165613 | 95 | 153 | 5.2 | 13.0 | 0.00 | 0.00 | 0.00 | 50 | 1012.5 |
| 20260509164614 | 95 | 260 | 6.1 | 15.6 | 0.00 | 0.00 | 0.00 | 47 | 1012.8 |
| 20260509163614 | 94 | 273 | 6.1 | 12.2 | 0.00 | 0.00 | 0.00 | 48 | 1012.7 |
| 20260509162609 | 94 | 269 | 5.2 | 10.4 | 0.00 | 0.00 | 0.00 | 49 | 1012.8 |
| 20260509161609 | 93 | 237 | 4.3 | 10.4 | 0.00 | 0.00 | 0.00 | 52 | 1012.8 |
| 20260509160609 | 92 | 146 | 5.2 | 13.0 | 0.00 | 0.00 | 0.00 | 54 | 1012.9 |
| 20260509160053 | 92 | 226 | 6.1 | 12.2 | 0.00 | 0.00 | 0.00 | 51 | 1013.0 |
| 20260509154608 | 92 | 212 | 5.2 | 11.3 | 0.00 | 0.00 | 0.00 | 49 | 1013.2 |
| 20260509153610 | 92 | 230 | 5.2 | 10.4 | 0.00 | 0.00 | 0.00 | 47 | 1013.3 |
| 20260509152608 | 91 | 233 | 5.2 | 10.4 | 0.00 | 0.00 | 0.00 | 51 | 1013.4 |
| 20260509151609 | 90 | 179 | 4.3 | 9.6 | 0.00 | 0.00 | 0.00 | 55 | 1013.6 |
| 20260509150609 | 89 | 198 | 3.5 | 8.7 | 0.00 | 0.00 | 0.00 | 59 | 1013.6 |
| 20260509145608 | 88 | 158 | 3.5 | 8.7 | 0.00 | 0.00 | 0.00 | 65 | 1013.7 |
| 20260509144608 | 87 | 202 | 4.3 | 8.7 | 0.00 | 0.00 | 0.00 | 65 | 1013.8 |
| 20260509143608 | 86 | 202 | 3.5 | 7.8 | 0.00 | 0.00 | 0.00 | 67 | 1013.7 |
| 20260509142608 | 86 | 206 | 3.5 | 7.0 | 0.00 | 0.00 | 0.00 | 67 | 1013.6 |
| 20260509141611 | 85 | 270 | 2.6 | 7.8 | 0.00 | 0.00 | 0.00 | 69 | 1013.7 |
| 20260509140606 | 85 | 190 | 2.6 | 7.0 | 0.00 | 0.00 | 0.00 | 71 | 1013.8 |
| 20260509135606 | 84 | 200 | 0.9 | 2.6 | 0.00 | 0.00 | 0.00 | 72 | 1013.8 |
| 20260509135523 | 83 | 150 | 1.7 | 4.3 | 0.00 | 0.00 | 0.00 | 73 | 1013.9 |
| 20260509133606 | 83 | 5 | 1.7 | 2.6 | 0.00 | 0.00 | 0.00 | 75 | 1014.0 |
| 20260509132607 | 82 | 335 | 0.9 | 2.6 | 0.00 | 0.00 | 0.00 | 77 | 1013.9 |
| 20260509132058 | 82 | 51 | 0.9 | 3.5 | 0.00 | 0.00 | 0.00 | 78 | 1013.9 |
| 20260509130559 | 80 | 172 | 0.9 | 3.5 | 0.00 | 0.00 | 0.00 | 83 | 1013.8 |
| 20260509130032 | 79 | 171 | 0.9 | 3.5 | 0.00 | 0.00 | 0.00 | 83 | 1013.8 |
| 20260509124556 | 78 | 171 | 0.0 | 2.6 | 0.00 | 0.00 | 0.00 | 87 | 1013.8 |
| 20260509123559 | 78 | 140 | 0.9 | 4.3 | 0.00 | 0.00 | 0.00 | 86 | 1013.7 |
| 20260509122553 | 77 | 162 | 0.9 | 2.6 | 0.00 | 0.00 | 0.00 | 89 | 1013.7 |
| 20260509121550 | 77 | 162 | 0.9 | 4.3 | 0.00 | 0.00 | 0.00 | 90 | 1013.6 |
| 20260509120551 | 76 | 163 | 0.9 | 5.2 | 0.00 | 0.00 | 0.00 | 92 | 1013.4 |
| 20260509120042 | 75 | 162 | 1.7 | 5.2 | 0.00 | 0.00 | 0.00 | 94 | 1013.1 |
| 20260509114553 | 74 | 136 | 0.9 | 3.5 | 0.00 | 0.00 | 0.00 | 94 | 1013.0 |
| 20260509113554 | 73 | 231 | 0.0 | 1.7 | 0.00 | 0.00 | 0.00 | 95 | 1013.0 |
| 20260509113031 | 72 | 231 | 0.0 | 0.9 | 0.00 | 0.00 | 0.00 | 95 | 1013.0 |
| 20260509111553 | 71 | 232 | 0.0 | 0.9 | 0.00 | 0.00 | 0.00 | 95 | 1012.9 |
| 20260509110549 | 71 | 269 | 0.0 | 0.0 | 0.00 | 0.00 | 0.00 | 95 | 1012.8 |
| 20260509105550 | 71 | 309 | 0.0 | 0.0 | 0.00 | 0.00 | 0.00 | 94 | 1012.7 |
| 20260509104552 | 71 | 309 | 0.0 | 0.0 | 0.00 | 0.00 | 0.00 | 94 | 1012.7 |
| 20260509103551 | 71 | 309 | 0.0 | 0.0 | 0.00 | 0.00 | 0.00 | 94 | 1012.7 |
| 20260509102549 | 71 | 309 | 0.0 | 0.0 | 0.00 | 0.00 | 0.00 | 94 | 1012.8 |
| 20260509101551 | 71 | 309 | 0.0 | 0.0 | 0.00 | 0.00 | 0.00 | 94 | 1012.7 |
| 20260509101024 | 71 | 309 | 0.0 | 0.0 | 0.00 | 0.00 | 0.00 | 94 | 1012.8 |
| 20260509095550 | 71 | 309 | 0.0 | 0.0 | 0.00 | 0.00 | 0.00 | 93 | 1012.8 |
| 20260509094548 | 72 | 309 | 0.0 | 0.0 | 0.00 | 0.00 | 0.00 | 93 | 1012.8 |
| 20260509093550 | 72 | 309 | 0.0 | 0.9 | 0.00 | 0.00 | 0.00 | 93 | 1012.7 |
| 20260509092546 | 72 | 309 | 0.0 | 0.0 | 0.00 | 0.00 | 0.00 | 92 | 1012.6 |
| 20260509091546 | 73 | 309 | 0.0 | 0.0 | 0.00 | 0.00 | 0.00 | 92 | 1012.6 |
| 20260509090549 | 74 | 309 | 0.0 | 0.0 | 0.00 | 0.00 | 0.00 | 92 | 1012.6 |
| 20260509085541 | 74 | 309 | 1.7 | 3.5 | 0.00 | 0.00 | 0.00 | 92 | 1012.7 |
| 20260509084539 | 74 | 308 | 1.7 | 3.5 | 0.00 | 0.00 | 0.00 | 92 | 1012.6 |
| 20260509083539 | 74 | 302 | 0.9 | 3.5 | 0.00 | 0.00 | 0.00 | 91 | 1012.6 |
| 20260509082542 | 74 | 301 | 0.9 | 2.6 | 0.00 | 0.00 | 0.00 | 90 | 1012.7 |
| 20260509081540 | 75 | 301 | 0.9 | 2.6 | 0.00 | 0.00 | 0.00 | 90 | 1012.8 |
| 20260509080539 | 75 | 301 | 1.7 | 4.3 | 0.00 | 0.00 | 0.00 | 90 | 1012.8 |
| 20260509075537 | 75 | 302 | 0.9 | 3.5 | 0.00 | 0.00 | 0.00 | 89 | 1012.8 |
| 20260509074537 | 75 | 303 | 0.9 | 3.5 | 0.00 | 0.00 | 0.00 | 89 | 1012.8 |
| 20260509073536 | 76 | 303 | 1.7 | 2.6 | 0.00 | 0.00 | 0.00 | 88 | 1012.8 |
| 20260509072535 | 76 | 304 | 0.9 | 3.5 | 0.00 | 0.00 | 0.00 | 87 | 1012.9 |
| 20260509071536 | 76 | 306 | 0.9 | 2.6 | 0.00 | 0.00 | 0.00 | 86 | 1013.0 |
| 20260509070535 | 76 | 305 | 1.7 | 3.5 | 0.00 | 0.00 | 0.00 | 86 | 1013.2 |
| 20260509065536 | 76 | 304 | 1.7 | 4.3 | 0.00 | 0.00 | 0.00 | 85 | 1013.4 |
| 20260509064536 | 76 | 301 | 1.7 | 3.5 | 0.00 | 0.00 | 0.00 | 85 | 1013.4 |
| 20260509063535 | 77 | 305 | 1.7 | 6.1 | 0.00 | 0.00 | 0.00 | 84 | 1013.4 |
| 20260509062534 | 77 | 296 | 1.7 | 4.3 | 0.00 | 0.00 | 0.00 | 84 | 1013.5 |
| 20260509061536 | 77 | 293 | 1.7 | 3.5 | 0.00 | 0.00 | 0.00 | 83 | 1013.6 |
| 20260509060533 | 77 | 298 | 2.6 | 6.1 | 0.00 | 0.00 | 0.00 | 82 | 1013.7 |
| 20260509055531 | 78 | 309 | 1.7 | 4.3 | 0.00 | 0.00 | 0.00 | 82 | 1013.8 |
| 20260509054533 | 78 | 295 | 2.6 | 6.1 | 0.00 | 0.00 | 0.00 | 81 | 1014.0 |
| 20260509053531 | 78 | 283 | 2.6 | 6.1 | 0.00 | 0.00 | 0.00 | 80 | 1014.1 |
| 20260509052530 | 78 | 285 | 1.7 | 5.2 | 0.00 | 0.00 | 0.00 | 80 | 1014.1 |
| 20260509051530 | 78 | 299 | 0.9 | 2.6 | 0.00 | 0.00 | 0.00 | 79 | 1014.2 |
| 20260509051007 | 78 | 298 | 0.0 | 1.7 | 0.00 | 0.00 | 0.00 | 79 | 1014.4 |
| 20260509045529 | 78 | 299 | 0.0 | 1.7 | 0.00 | 0.00 | 0.00 | 78 | 1014.5 |
| 20260509044533 | 78 | 299 | 0.0 | 0.0 | 0.00 | 0.00 | 0.00 | 78 | 1014.5 |
| 20260509043531 | 79 | 299 | 0.0 | 0.0 | 0.00 | 0.00 | 0.00 | 77 | 1014.6 |
| 20260509042530 | 79 | 298 | 0.0 | 1.7 | 0.00 | 0.00 | 0.00 | 76 | 1014.7 |
| 20260509041530 | 80 | 298 | 0.9 | 2.6 | 0.00 | 0.00 | 0.00 | 75 | 1014.6 |
| 20260509040528 | 80 | 298 | 0.9 | 2.6 | 0.00 | 0.00 | 0.00 | 75 | 1014.7 |
| 20260509035518 | 80 | 298 | 0.9 | 2.6 | 0.00 | 0.00 | 0.00 | 75 | 1014.7 |
| 20260509034516 | 80 | 299 | 0.9 | 1.7 | 0.00 | 0.00 | 0.00 | 74 | 1014.5 |
| 20260509033515 | 80 | 298 | 0.9 | 3.5 | 0.00 | 0.00 | 0.00 | 73 | 1014.5 |
| 20260509032516 | 80 | 281 | 0.9 | 3.5 | 0.00 | 0.00 | 0.00 | 72 | 1014.4 |
| 20260509031515 | 81 | 279 | 1.7 | 3.5 | 0.00 | 0.00 | 0.00 | 70 | 1014.5 |